Time;durP1;ratioP1;P1;durP2;ratioP2;P2;SDS_P1;SDS_P2;PMS_P1;PMS_P2;Temp;Humidity;BMP_temperature;BMP_pressure;BME280_temperature;BME280_humidity;BME280_pressure;Samples;Min_cycle;Max_cycle;Signal;HPM_P1;HPM_P2
2021/09/07 00:01:49;;;;;;;24.10;18.53;;;17.80;98.30;;;;;;4117769;28;20541;-83
2021/09/07 00:03:52;;;;;;;21.27;17.60;;;17.80;98.30;;;;;;4116009;28;21020;-83
2021/09/07 00:05:55;;;;;;;20.23;18.10;;;17.70;98.30;;;;;;4118905;28;20540;-82
2021/09/07 00:07:59;;;;;;;23.80;18.27;;;17.60;98.30;;;;;;4116204;28;20897;-82
2021/09/07 00:10:03;;;;;;;19.70;17.40;;;17.60;98.30;;;;;;4101565;28;20497;-83
2021/09/07 00:12:07;;;;;;;21.90;18.27;;;17.60;98.30;;;;;;4099876;29;20476;-83
2021/09/07 00:14:10;;;;;;;20.57;17.10;;;17.60;98.30;;;;;;4113263;28;20471;-84
2021/09/07 00:16:13;;;;;;;20.63;17.93;;;17.60;98.30;;;;;;4115225;28;20530;-84
2021/09/07 00:18:17;;;;;;;25.03;19.50;;;17.60;98.30;;;;;;4116445;28;20530;-83
2021/09/07 00:20:22;;;;;;;24.03;18.27;;;17.60;98.30;;;;;;4113506;28;20568;-82
2021/09/07 00:22:25;;;;;;;22.87;18.30;;;17.50;98.30;;;;;;4116172;28;21079;-81
2021/09/07 00:24:30;;;;;;;23.37;19.17;;;17.40;98.30;;;;;;4122850;28;20464;-83
2021/09/07 00:26:33;;;;;;;24.93;20.47;;;17.30;98.30;;;;;;4116197;28;20523;-82
2021/09/07 00:28:35;;;;;;;26.73;19.37;;;17.30;98.30;;;;;;4116044;28;20559;-82
2021/09/07 00:30:38;;;;;;;25.73;19.70;;;17.30;98.30;;;;;;4115847;28;21011;-83
2021/09/07 00:32:42;;;;;;;22.20;18.20;;;17.30;98.30;;;;;;4116092;28;20471;-83
2021/09/07 00:34:45;;;;;;;29.00;21.60;;;17.40;98.30;;;;;;4115673;28;20471;-82
2021/09/07 00:36:48;;;;;;;26.10;20.53;;;17.40;98.30;;;;;;4116142;28;20459;-82
2021/09/07 00:38:50;;;;;;;26.37;18.43;;;17.40;98.30;;;;;;4109491;28;20557;-82
2021/09/07 00:40:55;;;;;;;25.17;20.20;;;17.40;98.30;;;;;;4111534;28;20463;-83
2021/09/07 00:42:58;;;;;;;21.77;18.20;;;17.50;98.30;;;;;;4111917;28;20471;-82
2021/09/07 00:45:01;;;;;;;23.97;19.00;;;17.50;98.30;;;;;;4116451;28;20477;-83
2021/09/07 00:47:05;;;;;;;23.60;19.33;;;17.50;98.30;;;;;;4116610;28;20491;-83
2021/09/07 00:49:08;;;;;;;22.30;17.47;;;17.50;98.30;;;;;;4110754;28;20500;-83
2021/09/07 00:51:12;;;;;;;21.77;18.00;;;17.50;98.30;;;;;;4117077;28;20482;-83
2021/09/07 00:53:16;;;;;;;25.93;19.00;;;17.60;98.30;;;;;;4114339;28;20553;-83
2021/09/07 00:55:20;;;;;;;24.83;18.07;;;17.50;98.30;;;;;;4117939;28;20472;-83
2021/09/07 00:57:25;;;;;;;26.63;19.50;;;17.50;98.30;;;;;;4115407;28;20491;-82
2021/09/07 00:59:31;;;;;;;27.47;20.23;;;17.60;98.30;;;;;;4115168;28;20865;-82
2021/09/07 01:01:34;;;;;;;23.20;18.97;;;17.60;98.30;;;;;;4114668;28;20468;-83
2021/09/07 01:03:37;;;;;;;25.83;20.47;;;17.50;98.30;;;;;;4116053;28;20861;-83
2021/09/07 01:05:42;;;;;;;23.50;18.37;;;17.40;98.30;;;;;;4114240;28;20479;-83
2021/09/07 01:07:45;;;;;;;23.37;19.50;;;17.40;98.30;;;;;;4114436;28;20472;-83
2021/09/07 01:09:48;;;;;;;24.57;19.07;;;17.30;98.30;;;;;;4116791;28;20502;-83
2021/09/07 01:11:51;;;;;;;24.63;19.43;;;17.30;98.30;;;;;;4115679;28;20502;-83
2021/09/07 01:13:55;;;;;;;25.13;20.57;;;17.30;98.30;;;;;;4112856;28;20460;-82
2021/09/07 01:16:01;;;;;;;24.40;18.80;;;17.30;98.30;;;;;;4104589;28;20500;-82
2021/09/07 01:18:04;;;;;;;28.03;19.93;;;17.30;98.30;;;;;;4121656;28;20467;-83
2021/09/07 01:20:09;;;;;;;24.37;19.27;;;17.30;98.30;;;;;;4110896;28;20482;-82
2021/09/07 01:22:12;;;;;;;26.20;19.13;;;17.30;98.30;;;;;;4113377;28;20471;-83
2021/09/07 01:24:15;;;;;;;26.47;19.27;;;17.40;98.30;;;;;;4117306;28;20464;-82
2021/09/07 01:26:22;;;;;;;27.50;20.37;;;17.40;98.30;;;;;;4120978;28;20523;-83
2021/09/07 01:28:25;;;;;;;28.60;20.47;;;17.40;98.30;;;;;;4112835;28;20479;-83
2021/09/07 01:30:29;;;;;;;27.30;20.17;;;17.40;98.30;;;;;;4121595;28;20522;-83
2021/09/07 01:32:32;;;;;;;23.97;19.57;;;17.30;98.30;;;;;;4116007;28;20542;-83
2021/09/07 01:34:35;;;;;;;23.47;20.40;;;17.30;98.30;;;;;;4112552;28;20515;-82
2021/09/07 01:36:38;;;;;;;28.17;20.77;;;17.30;98.30;;;;;;4116729;28;20494;-83
2021/09/07 01:38:41;;;;;;;23.13;19.73;;;17.30;98.30;;;;;;4121100;28;20487;-82
2021/09/07 01:40:44;;;;;;;28.70;20.20;;;17.30;98.30;;;;;;4112811;28;20595;-83
2021/09/07 01:42:48;;;;;;;25.80;19.20;;;17.30;98.30;;;;;;4115541;28;20467;-83
2021/09/07 01:44:51;;;;;;;26.13;21.00;;;17.20;98.30;;;;;;4116909;28;20472;-82
2021/09/07 01:46:54;;;;;;;23.97;20.30;;;17.20;98.30;;;;;;4113475;28;20472;-83
2021/09/07 01:48:57;;;;;;;24.87;20.17;;;17.20;98.30;;;;;;4116335;28;20511;-82
2021/09/07 01:51:00;;;;;;;26.43;19.00;;;17.20;98.30;;;;;;4114031;28;20471;-83
2021/09/07 01:53:03;;;;;;;26.03;20.60;;;17.20;98.30;;;;;;4114797;28;20839;-82
2021/09/07 01:55:06;;;;;;;26.47;21.63;;;17.20;98.30;;;;;;4112005;28;20479;-82
2021/09/07 01:57:11;;;;;;;23.53;20.63;;;17.20;98.30;;;;;;4119753;28;20550;-83
2021/09/07 01:59:15;;;;;;;24.90;19.20;;;17.10;98.30;;;;;;4118548;28;21026;-83
2021/09/07 02:01:18;;;;;;;26.03;20.27;;;17.10;98.30;;;;;;4117380;28;20495;-82
2021/09/07 02:03:21;;;;;;;26.17;21.17;;;17.10;98.30;;;;;;4119036;28;20505;-83
2021/09/07 02:05:25;;;;;;;33.20;22.33;;;17.10;98.30;;;;;;4114254;28;20941;-83
2021/09/07 02:07:28;;;;;;;24.67;19.27;;;17.10;98.30;;;;;;4120801;28;20806;-83
2021/09/07 02:09:30;;;;;;;24.53;19.93;;;17.00;98.30;;;;;;4119245;28;20515;-81
2021/09/07 02:11:33;;;;;;;28.13;21.60;;;17.00;98.30;;;;;;4119657;28;20542;-83
2021/09/07 02:13:36;;;;;;;23.80;20.30;;;17.00;98.30;;;;;;4117157;28;20475;-81
2021/09/07 02:15:40;;;;;;;27.07;21.53;;;17.00;98.30;;;;;;4109858;28;20976;-82
2021/09/07 02:17:44;;;;;;;28.67;21.10;;;17.00;98.30;;;;;;4120381;28;20493;-83
2021/09/07 02:19:46;;;;;;;23.60;19.33;;;16.90;98.30;;;;;;4130924;28;20561;-82
2021/09/07 02:21:49;;;;;;;22.30;19.50;;;16.80;98.30;;;;;;4121457;28;20993;-82
2021/09/07 02:23:52;;;;;;;23.33;19.53;;;16.80;98.30;;;;;;4118854;28;20820;-83
2021/09/07 02:25:55;;;;;;;26.63;20.13;;;16.80;98.30;;;;;;4111938;28;20475;-83
2021/09/07 02:27:59;;;;;;;26.80;20.83;;;16.80;98.30;;;;;;4117541;28;20464;-82
2021/09/07 02:30:02;;;;;;;25.90;20.70;;;16.80;98.30;;;;;;4118607;28;20725;-83
2021/09/07 02:32:07;;;;;;;24.93;20.80;;;16.80;98.30;;;;;;4119822;28;20475;-82
2021/09/07 02:34:10;;;;;;;26.77;20.97;;;16.80;98.30;;;;;;4118379;28;20965;-81
2021/09/07 02:36:13;;;;;;;28.60;21.43;;;16.80;98.30;;;;;;4122532;28;20519;-83
2021/09/07 02:38:15;;;;;;;25.07;19.57;;;16.80;98.30;;;;;;4119947;28;20833;-82
2021/09/07 02:40:19;;;;;;;27.87;20.20;;;16.80;98.30;;;;;;4116063;28;20467;-83
2021/09/07 02:42:22;;;;;;;28.73;21.13;;;16.80;98.30;;;;;;4117290;28;20472;-82
2021/09/07 02:44:26;;;;;;;25.47;21.37;;;16.80;98.30;;;;;;4115544;28;20471;-83
2021/09/07 02:46:30;;;;;;;25.50;21.00;;;16.80;98.30;;;;;;4114725;28;21544;-83
2021/09/07 02:48:35;;;;;;;22.10;19.20;;;16.80;98.30;;;;;;4113427;28;20484;-82
2021/09/07 02:50:38;;;;;;;23.40;20.00;;;16.80;98.30;;;;;;4115009;28;21009;-83
2021/09/07 02:52:41;;;;;;;29.57;22.10;;;16.70;98.30;;;;;;4127151;28;20470;-83
2021/09/07 02:54:44;;;;;;;23.73;20.10;;;16.70;98.30;;;;;;4116562;28;20474;-83
2021/09/07 02:56:46;;;;;;;26.90;20.90;;;16.70;98.30;;;;;;4111946;28;20468;-82
2021/09/07 02:58:49;;;;;;;28.77;21.60;;;16.70;98.30;;;;;;4114787;28;20896;-83
2021/09/07 03:00:52;;;;;;;26.40;21.13;;;16.60;98.30;;;;;;4120438;28;20549;-83
2021/09/07 03:02:58;;;;;;;24.70;20.47;;;16.60;98.30;;;;;;4117635;28;20500;-82
2021/09/07 03:05:02;;;;;;;27.80;20.27;;;16.60;98.30;;;;;;4121049;28;20467;-84
2021/09/07 03:07:06;;;;;;;24.23;19.40;;;16.60;98.30;;;;;;4120078;28;20474;-83
2021/09/07 03:09:09;;;;;;;24.40;20.67;;;16.70;98.30;;;;;;4120096;28;20500;-82
2021/09/07 03:11:12;;;;;;;27.97;20.23;;;16.70;98.30;;;;;;4119562;28;20478;-83
2021/09/07 03:13:17;;;;;;;26.53;18.47;;;16.60;98.30;;;;;;4117266;28;20463;-83
2021/09/07 03:15:20;;;;;;;23.03;18.37;;;16.70;98.30;;;;;;4117233;28;20479;-83
2021/09/07 03:17:23;;;;;;;23.00;20.10;;;16.70;98.30;;;;;;4117497;28;20472;-82
2021/09/07 03:19:26;;;;;;;29.50;20.40;;;16.70;98.30;;;;;;4122250;28;20484;-84
2021/09/07 03:21:30;;;;;;;24.80;20.33;;;16.70;98.30;;;;;;4117617;28;20471;-83
2021/09/07 03:23:33;;;;;;;25.20;20.40;;;16.60;98.30;;;;;;4118743;28;20953;-82
2021/09/07 03:25:36;;;;;;;28.90;20.73;;;16.50;98.30;;;;;;4118242;28;20474;-83
2021/09/07 03:27:39;;;;;;;32.30;22.80;;;16.50;98.30;;;;;;4123210;28;20460;-83
2021/09/07 03:29:42;;;;;;;25.73;21.90;;;16.50;98.30;;;;;;4116492;28;20579;-82
2021/09/07 03:31:45;;;;;;;30.60;21.60;;;16.50;98.30;;;;;;4120351;28;20474;-82
2021/09/07 03:33:50;;;;;;;25.77;21.20;;;16.50;98.30;;;;;;4117297;28;20992;-83
2021/09/07 03:35:53;;;;;;;27.57;21.63;;;16.50;98.30;;;;;;4113732;28;20642;-84
2021/09/07 03:37:57;;;;;;;36.97;28.10;;;16.60;98.30;;;;;;4123539;28;21367;-82
2021/09/07 03:40:00;;;;;;;39.03;29.87;;;16.60;98.30;;;;;;4124378;28;21019;-83
2021/09/07 03:42:03;;;;;;;35.30;26.23;;;16.60;98.30;;;;;;4116155;28;20467;-83
2021/09/07 03:44:06;;;;;;;32.97;26.67;;;16.60;98.30;;;;;;4116069;28;20530;-82
2021/09/07 03:46:09;;;;;;;41.67;32.27;;;16.60;98.30;;;;;;4115628;28;20464;-83
2021/09/07 03:48:12;;;;;;;35.27;29.90;;;16.60;98.30;;;;;;4115707;28;20911;-83
2021/09/07 03:50:16;;;;;;;41.23;33.00;;;16.50;98.30;;;;;;4115518;28;20502;-83
2021/09/07 03:52:19;;;;;;;32.43;26.00;;;16.50;98.30;;;;;;4115916;28;20464;-83
2021/09/07 03:54:23;;;;;;;27.23;22.47;;;16.40;98.30;;;;;;4115236;28;20483;-83
2021/09/07 03:56:27;;;;;;;23.63;20.87;;;16.40;98.30;;;;;;4116497;28;20468;-84
2021/09/07 03:58:30;;;;;;;25.13;20.90;;;16.40;98.30;;;;;;4116449;28;20857;-84
2021/09/07 04:00:33;;;;;;;27.43;21.37;;;16.40;98.30;;;;;;4110827;28;20463;-83
2021/09/07 04:02:36;;;;;;;26.00;20.90;;;16.40;98.30;;;;;;4118262;28;20491;-83
2021/09/07 04:04:39;;;;;;;26.70;21.33;;;16.40;98.30;;;;;;4117596;28;20551;-83
2021/09/07 04:06:42;;;;;;;27.10;21.03;;;16.30;98.30;;;;;;4114472;28;20503;-83
2021/09/07 04:08:47;;;;;;;26.90;21.53;;;16.30;98.30;;;;;;4118004;28;20558;-84
2021/09/07 04:10:51;;;;;;;27.00;21.03;;;16.30;98.30;;;;;;4115546;28;20496;-83
2021/09/07 04:12:54;;;;;;;24.27;20.30;;;16.20;98.30;;;;;;4116551;28;20874;-83
2021/09/07 04:14:57;;;;;;;28.20;21.00;;;16.20;98.30;;;;;;4115265;28;20468;-83
2021/09/07 04:17:01;;;;;;;23.47;19.63;;;16.20;98.30;;;;;;4117064;28;20467;-83
2021/09/07 04:19:04;;;;;;;23.17;19.67;;;16.30;98.30;;;;;;4118912;28;20550;-82
2021/09/07 04:21:10;;;;;;;22.57;19.40;;;16.30;98.30;;;;;;4116387;28;20853;-83
2021/09/07 04:23:13;;;;;;;24.80;20.20;;;16.30;98.30;;;;;;4116491;28;20464;-83
2021/09/07 04:25:16;;;;;;;23.40;20.17;;;16.20;98.30;;;;;;4104308;28;20480;-83
2021/09/07 04:27:20;;;;;;;27.07;20.77;;;16.20;98.30;;;;;;4114370;28;20467;-83
2021/09/07 04:29:23;;;;;;;24.13;20.60;;;16.10;98.30;;;;;;4115113;28;20495;-83
2021/09/07 04:31:27;;;;;;;24.27;18.37;;;16.10;98.30;;;;;;4112360;28;20491;-84
2021/09/07 04:33:30;;;;;;;24.50;19.10;;;16.10;98.30;;;;;;4115242;28;21004;-83
2021/09/07 04:35:33;;;;;;;22.27;19.70;;;16.10;98.30;;;;;;4118501;28;20558;-83
2021/09/07 04:37:36;;;;;;;21.43;18.30;;;16.20;98.30;;;;;;4121424;28;20539;-83
2021/09/07 04:39:39;;;;;;;22.20;18.80;;;16.20;98.30;;;;;;4116179;28;20494;-83
2021/09/07 04:41:42;;;;;;;23.60;19.23;;;16.20;98.30;;;;;;4122626;28;22242;-83
2021/09/07 04:43:47;;;;;;;23.67;19.23;;;16.20;98.30;;;;;;4123896;28;20473;-82
2021/09/07 04:45:50;;;;;;;23.90;19.43;;;16.20;98.30;;;;;;4114977;28;20500;-83
2021/09/07 04:47:53;;;;;;;23.00;18.07;;;16.10;98.30;;;;;;4116651;28;20493;-83
2021/09/07 04:49:55;;;;;;;20.07;17.60;;;16.10;98.30;;;;;;4116019;28;20487;-83
2021/09/07 04:51:58;;;;;;;25.40;19.87;;;16.10;98.30;;;;;;4116178;28;20888;-83
2021/09/07 04:54:02;;;;;;;23.33;18.80;;;16.10;98.30;;;;;;4114403;28;20460;-83
2021/09/07 04:56:05;;;;;;;23.40;18.63;;;16.10;98.30;;;;;;4113262;28;20843;-83
2021/09/07 04:58:08;;;;;;;22.33;18.60;;;16.10;98.30;;;;;;4115796;28;20464;-83
2021/09/07 05:00:13;;;;;;;21.83;18.40;;;16.10;98.30;;;;;;4115264;28;20484;-83
2021/09/07 05:02:16;;;;;;;25.00;18.40;;;16.10;98.30;;;;;;4112865;28;20472;-83
2021/09/07 05:04:19;;;;;;;22.47;18.63;;;16.00;98.30;;;;;;4114892;28;20468;-82
2021/09/07 05:06:22;;;;;;;28.73;20.47;;;16.00;98.30;;;;;;4114996;28;20476;-82
2021/09/07 05:50:34;;;;;;;41.33;30.37;;;16.60;98.30;;;;;;5153220;22;1272482;-80
2021/09/07 05:52:37;;;;;;;37.33;26.27;;;16.70;98.30;;;;;;5160825;23;20491;-80
2021/09/07 05:54:40;;;;;;;36.23;28.17;;;16.80;98.30;;;;;;5160265;22;20447;-80
2021/09/07 05:56:42;;;;;;;36.00;28.13;;;16.80;98.30;;;;;;5154922;23;20437;-80
2021/09/07 05:58:45;;;;;;;35.30;27.70;;;16.80;98.30;;;;;;5127637;23;20449;-81
2021/09/07 06:00:51;;;;;;;35.17;25.00;;;16.90;98.30;;;;;;5137332;23;20433;-81
2021/09/07 06:02:57;;;;;;;29.27;23.07;;;16.90;98.30;;;;;;5126387;23;20445;-80
2021/09/07 07:36:22;;;;;;;30.03;24.60;;;19.40;98.30;;;;;;5105122;22;20861;-82
2021/09/07 07:38:25;;;;;;;25.23;18.67;;;19.60;98.30;;;;;;5169591;23;20428;-82
2021/09/07 07:40:28;;;;;;;17.23;13.97;;;19.70;98.30;;;;;;5178064;23;20474;-82
2021/09/07 07:42:31;;;;;;;19.70;16.10;;;19.90;98.30;;;;;;5169159;23;20478;-82
2021/09/07 07:44:34;;;;;;;17.30;14.70;;;19.90;98.30;;;;;;5178025;23;20424;-82
2021/09/07 07:46:37;;;;;;;14.63;12.90;;;20.00;98.30;;;;;;5186337;23;20460;-82
2021/09/07 07:48:40;;;;;;;21.17;13.17;;;20.20;98.30;;;;;;5179357;23;20420;-82
2021/09/07 07:50:43;;;;;;;14.13;11.63;;;20.20;98.30;;;;;;5169846;23;20428;-82
2021/09/07 07:52:47;;;;;;;14.10;11.60;;;20.30;98.30;;;;;;5169759;23;21003;-82
2021/09/07 07:54:51;;;;;;;16.07;11.37;;;20.50;98.30;;;;;;5169599;23;20420;-82
2021/09/07 07:56:53;;;;;;;37.80;27.00;;;20.60;98.30;;;;;;5177340;23;20444;-83
2021/09/07 07:58:56;;;;;;;39.83;32.40;;;20.60;98.30;;;;;;5169471;23;20486;-82
2021/09/07 08:01:00;;;;;;;94.90;62.97;;;20.70;98.30;;;;;;5170361;23;20486;-82
2021/09/07 08:03:03;;;;;;;19.97;16.00;;;20.70;98.30;;;;;;5178055;23;20440;-83
2021/09/07 08:05:12;;;;;;;17.50;13.93;;;20.70;98.30;;;;;;5178355;23;20399;-82
2021/09/07 08:07:17;;;;;;;13.47;11.40;;;20.80;98.30;;;;;;5178218;23;20426;-82
2021/09/07 08:09:21;;;;;;;16.83;13.63;;;20.90;98.30;;;;;;5178382;23;20416;-82
2021/09/07 08:11:24;;;;;;;12.67;11.33;;;21.00;98.30;;;;;;5177710;23;20430;-82
2021/09/07 08:13:27;;;;;;;17.37;11.33;;;21.00;98.30;;;;;;5169276;23;20434;-82
2021/09/07 08:15:30;;;;;;;15.50;10.10;;;21.10;98.30;;;;;;5177982;23;20991;-82
2021/09/07 08:17:33;;;;;;;12.10;10.77;;;21.10;98.30;;;;;;5169502;23;20747;-83
2021/09/07 08:19:36;;;;;;;10.97;8.87;;;21.00;98.30;;;;;;5177771;23;20452;-82
2021/09/07 08:21:39;;;;;;;12.77;9.80;;;21.10;98.30;;;;;;5168962;23;21052;-82
2021/09/07 08:23:44;;;;;;;14.97;10.20;;;21.10;98.30;;;;;;5169076;23;20444;-82
2021/09/07 08:25:48;;;;;;;10.70;8.80;;;21.00;98.30;;;;;;5169951;23;20447;-82
2021/09/07 08:27:51;;;;;;;11.20;8.63;;;21.00;98.30;;;;;;5168843;23;20431;-82
2021/09/07 08:29:54;;;;;;;11.27;9.87;;;20.90;98.30;;;;;;5169569;23;20754;-82
2021/09/07 08:31:57;;;;;;;11.77;8.70;;;20.90;98.30;;;;;;5169254;23;20431;-83
2021/09/07 08:34:00;;;;;;;12.30;8.80;;;20.80;98.30;;;;;;5169289;23;20424;-83
2021/09/07 08:36:03;;;;;;;9.33;8.17;;;20.70;98.30;;;;;;5168720;23;20534;-83
2021/09/07 08:38:06;;;;;;;9.60;8.07;;;20.80;98.30;;;;;;5168941;23;20434;-82
2021/09/07 08:40:11;;;;;;;10.50;7.73;;;21.00;98.30;;;;;;5167982;23;20436;-82
2021/09/07 08:42:15;;;;;;;10.10;7.80;;;21.30;98.30;;;;;;5168262;23;20447;-82
2021/09/07 08:44:18;;;;;;;9.10;7.93;;;21.40;98.30;;;;;;5168654;23;20497;-83
2021/09/07 08:46:21;;;;;;;10.20;8.20;;;21.50;98.30;;;;;;5169163;23;20448;-82
2021/09/07 08:48:28;;;;;;;45.77;37.20;;;21.60;98.30;;;;;;5176718;23;20773;-82
2021/09/07 08:50:31;;;;;;;32.40;27.23;;;21.70;98.30;;;;;;5173223;22;20416;-82
2021/09/07 08:52:34;;;;;;;82.63;63.00;;;21.80;98.30;;;;;;5170455;23;20424;-82
2021/09/07 08:54:37;;;;;;;17.83;15.90;;;22.00;98.30;;;;;;5168984;23;20909;-82
2021/09/07 08:56:41;;;;;;;16.47;9.70;;;22.20;98.30;;;;;;5177804;23;20436;-82
2021/09/07 08:58:45;;;;;;;10.37;8.53;;;22.50;98.30;;;;;;5176951;23;20422;-82
2021/09/07 09:00:50;;;;;;;9.13;7.63;;;22.60;98.30;;;;;;5169291;23;20817;-82
2021/09/07 09:02:53;;;;;;;10.20;7.40;;;22.70;97.60;;;;;;5168914;23;20438;-83
2021/09/07 09:04:58;;;;;;;10.23;7.80;;;22.90;97.70;;;;;;5168596;23;20498;-82
2021/09/07 09:07:01;;;;;;;9.40;6.80;;;23.00;96.80;;;;;;5177437;23;20507;-83
2021/09/07 09:09:05;;;;;;;9.03;7.10;;;23.00;95.80;;;;;;5177340;23;20427;-82
2021/09/07 09:11:10;;;;;;;9.07;6.93;;;22.80;95.90;;;;;;5176575;23;20434;-82
2021/09/07 09:13:14;;;;;;;21.33;17.20;;;22.80;96.70;;;;;;5177176;23;20419;-82
2021/09/07 09:15:21;;;;;;;38.73;34.17;;;22.80;96.50;;;;;;5167971;23;20927;-82
2021/09/07 09:17:29;;;;;;;15.70;14.03;;;22.90;97.10;;;;;;5168604;23;20420;-82
2021/09/07 09:19:48;;;;;;;14.23;9.30;;;23.00;96.70;;;;;;5176368;23;20411;-82
2021/09/07 09:21:51;;;;;;;11.90;8.97;;;23.20;93.90;;;;;;5168038;23;21155;-82
2021/09/07 09:24:18;;;;;;;8.63;6.87;;;23.30;93.80;;;;;;5175853;23;20995;-83
2021/09/07 09:26:21;;;;;;;9.53;6.80;;;23.50;93.60;;;;;;5168648;23;20444;-83
2021/09/07 09:28:24;;;;;;;6.80;6.10;;;23.60;94.00;;;;;;5168176;23;20494;-83
2021/09/07 09:30:30;;;;;;;8.03;6.60;;;23.70;93.90;;;;;;5177280;23;20420;-82
2021/09/07 09:32:35;;;;;;;9.30;6.17;;;24.00;93.30;;;;;;5177168;23;20408;-82
2021/09/07 09:34:40;;;;;;;8.57;7.33;;;24.20;92.80;;;;;;5176075;23;20726;-82
2021/09/07 09:36:54;;;;;;;8.60;6.70;;;24.10;91.90;;;;;;5167366;23;20456;-82
2021/09/07 09:38:57;;;;;;;6.80;6.10;;;24.30;91.70;;;;;;5175863;23;20455;-82
2021/09/07 09:41:03;;;;;;;9.20;6.17;;;24.30;90.20;;;;;;5175783;23;20509;-83
2021/09/07 09:43:25;;;;;;;7.30;6.10;;;24.30;89.90;;;;;;5175496;23;20426;-83
2021/09/07 09:45:31;;;;;;;7.17;5.23;;;24.50;89.00;;;;;;5175168;23;20448;-82
2021/09/07 09:47:35;;;;;;;6.30;5.30;;;24.40;89.00;;;;;;5175419;23;20443;-82
2021/09/07 09:49:39;;;;;;;7.50;6.13;;;24.20;88.70;;;;;;5167964;23;20433;-82
2021/09/07 09:51:43;;;;;;;7.70;6.20;;;24.20;88.70;;;;;;5175877;23;20430;-82
2021/09/07 09:53:58;;;;;;;6.83;5.83;;;24.30;88.30;;;;;;5176076;23;20521;-82
2021/09/07 09:56:02;;;;;;;7.37;5.70;;;24.40;89.50;;;;;;5183022;23;20440;-83
2021/09/07 09:58:05;;;;;;;6.77;5.47;;;24.40;88.10;;;;;;5168684;23;20910;-82
2021/09/07 10:00:10;;;;;;;6.93;6.10;;;24.70;88.40;;;;;;5177048;23;20658;-82
2021/09/07 10:02:15;;;;;;;7.67;5.57;;;24.80;87.10;;;;;;5168346;23;20427;-83
2021/09/07 10:04:20;;;;;;;8.83;5.70;;;24.90;87.80;;;;;;5175172;23;20453;-82
2021/09/07 10:06:23;;;;;;;9.47;5.43;;;25.10;86.90;;;;;;5175951;23;20535;-82
2021/09/07 10:08:26;;;;;;;8.13;5.30;;;25.40;87.10;;;;;;5168577;23;20506;-83
2021/09/07 10:10:29;;;;;;;9.23;5.90;;;25.60;85.80;;;;;;5178381;23;21017;-83
2021/09/07 10:12:39;;;;;;;7.00;5.60;;;25.60;85.00;;;;;;5177519;23;20431;-82
2021/09/07 10:14:51;;;;;;;12.37;5.90;;;25.60;84.30;;;;;;5176415;23;20523;-81
2021/09/07 10:17:28;;;;;;;7.13;5.60;;;25.50;84.00;;;;;;5167075;23;20460;-82
2021/09/07 10:19:45;;;;;;;6.17;5.50;;;25.70;84.90;;;;;;5177331;23;20445;-81
2021/09/07 10:24:16;;;;;;;6.93;5.80;;;25.90;82.40;;;;;;5170049;23;20431;-82
2021/09/07 10:26:40;;;;;;;8.37;5.40;;;25.90;82.80;;;;;;5171040;23;20530;-82
2021/09/07 10:28:44;;;;;;;5.87;5.30;;;26.10;83.50;;;;;;5171290;23;20431;-82
2021/09/07 10:31:00;;;;;;;7.00;5.90;;;26.00;82.60;;;;;;5172131;23;21210;-83
2021/09/07 10:33:39;;;;;;;8.70;5.57;;;25.90;83.10;;;;;;5173159;23;20933;-83
2021/09/07 10:36:05;;;;;;;6.67;5.60;;;26.00;82.80;;;;;;5172458;23;20550;-83
2021/09/07 10:38:11;;;;;;;6.00;4.97;;;26.50;83.70;;;;;;5188530;23;20424;-82
2021/09/07 10:40:44;;;;;;;29.40;24.93;;;26.60;82.70;;;;;;5179564;23;20415;-83
2021/09/07 10:42:52;;;;;;;36.83;32.83;;;26.60;82.10;;;;;;5189287;23;20416;-81
2021/09/07 10:44:59;;;;;;;12.70;11.40;;;26.60;81.20;;;;;;5179651;23;20427;-83
2021/09/07 10:47:08;;;;;;;8.20;7.33;;;26.40;81.20;;;;;;5186517;23;20900;-82
2021/09/07 10:49:24;;;;;;;7.37;5.57;;;26.50;81.00;;;;;;5177029;23;20478;-82
2021/09/07 10:51:27;;;;;;;9.03;6.10;;;26.30;80.40;;;;;;5177025;23;20416;-82
2021/09/07 10:53:31;;;;;;;6.40;5.80;;;26.40;82.00;;;;;;5177780;23;20514;-82
2021/09/07 10:55:36;;;;;;;6.47;5.87;;;26.80;81.00;;;;;;5176315;23;20468;-82
2021/09/07 10:57:58;;;;;;;7.27;5.57;;;27.20;80.60;;;;;;5183253;23;21012;-82
2021/09/07 11:00:05;;;;;;;6.00;5.40;;;27.50;79.30;;;;;;5181861;23;20913;-84
2021/09/07 11:02:33;;;;;;;5.90;5.17;;;27.50;78.50;;;;;;5181198;23;20408;-84
2021/09/07 11:04:52;;;;;;;6.37;5.70;;;27.30;78.60;;;;;;5172085;23;20530;-83
2021/09/07 11:06:55;;;;;;;6.67;6.00;;;27.30;79.40;;;;;;5181302;23;20447;-83
2021/09/07 11:08:57;;;;;;;6.30;5.33;;;27.50;78.40;;;;;;5182139;23;20434;-83
2021/09/07 11:11:22;;;;;;;5.30;4.80;;;27.60;77.70;;;;;;5180271;23;20753;-83
2021/09/07 11:13:27;;;;;;;7.23;5.60;;;27.30;77.90;;;;;;5175132;23;20475;-83
2021/09/07 11:15:33;;;;;;;6.23;5.40;;;26.90;78.50;;;;;;5180137;23;21249;-84
2021/09/07 11:17:49;;;;;;;5.93;5.10;;;26.50;79.10;;;;;;5180326;23;20413;-84
2021/09/07 11:20:00;;;;;;;6.37;5.33;;;26.50;80.40;;;;;;5179782;23;20439;-83
2021/09/07 11:22:29;;;;;;;6.03;5.43;;;26.80;80.30;;;;;;5182062;23;20415;-82
2021/09/07 11:24:32;;;;;;;5.43;4.83;;;26.90;81.30;;;;;;5183031;23;20444;-83
2021/09/07 11:26:40;;;;;;;7.40;5.00;;;27.20;81.70;;;;;;5178296;23;20976;-83
2021/09/07 11:28:47;;;;;;;6.37;5.30;;;27.40;79.90;;;;;;5179108;23;21155;-83
2021/09/07 11:30:51;;;;;;;6.43;4.60;;;27.40;79.90;;;;;;5182279;23;20476;-83
2021/09/07 11:32:59;;;;;;;5.67;5.00;;;27.70;79.40;;;;;;5179938;23;20485;-84
2021/09/07 11:35:11;;;;;;;5.67;4.90;;;27.60;77.90;;;;;;5186163;23;20427;-82
2021/09/07 11:37:19;;;;;;;5.93;5.33;;;27.90;79.40;;;;;;5180353;23;20438;-84
2021/09/07 11:39:22;;;;;;;5.93;5.30;;;28.20;79.00;;;;;;5185599;23;20411;-84
2021/09/07 11:41:26;;;;;;;5.90;5.30;;;28.10;77.20;;;;;;5183919;23;21199;-82
2021/09/07 11:43:30;;;;;;;5.53;4.67;;;28.20;77.50;;;;;;5173133;23;20427;-84
2021/09/07 11:45:35;;;;;;;6.10;4.70;;;28.40;77.00;;;;;;5179747;23;20535;-83
2021/09/07 11:47:38;;;;;;;5.47;4.90;;;28.50;77.40;;;;;;5175519;23;20490;-83
2021/09/07 11:49:42;;;;;;;6.83;5.30;;;28.50;77.00;;;;;;5168785;23;20999;-83
2021/09/07 11:51:48;;;;;;;6.03;4.97;;;28.20;75.50;;;;;;5178940;23;20426;-83
2021/09/07 11:53:55;;;;;;;6.47;5.87;;;28.30;76.30;;;;;;5183857;23;20420;-83
2021/09/07 11:55:58;;;;;;;6.87;5.50;;;28.00;75.50;;;;;;5178008;23;20450;-83
2021/09/07 11:58:00;;;;;;;6.00;4.93;;;27.90;76.90;;;;;;5181054;23;20428;-83
2021/09/07 12:00:03;;;;;;;5.60;4.90;;;28.00;77.30;;;;;;5183751;23;20964;-83
2021/09/07 12:02:10;;;;;;;5.00;4.60;;;28.40;77.10;;;;;;5174676;23;20434;-84
2021/09/07 12:04:14;;;;;;;5.33;4.70;;;28.80;75.50;;;;;;5182768;23;20408;-84
2021/09/07 12:06:20;;;;;;;6.20;5.60;;;28.90;75.00;;;;;;5190500;23;20438;-84
2021/09/07 12:08:37;;;;;;;5.60;4.80;;;28.80;75.20;;;;;;5179803;23;20407;-82
2021/09/07 12:10:52;;;;;;;6.80;5.37;;;28.80;75.80;;;;;;5178152;23;20485;-83
2021/09/07 12:12:54;;;;;;;5.57;4.90;;;29.10;75.50;;;;;;5168846;23;20411;-82
2021/09/07 12:14:59;;;;;;;5.00;4.60;;;28.90;74.90;;;;;;5176504;23;20473;-82
2021/09/07 12:17:05;;;;;;;6.47;4.60;;;28.90;74.50;;;;;;5168782;23;20522;-82
2021/09/07 12:19:36;;;;;;;5.13;4.63;;;28.80;74.80;;;;;;5170890;23;20408;-82
2021/09/07 12:21:39;;;;;;;5.30;4.80;;;28.90;74.70;;;;;;5100872;23;20427;-82
2021/09/07 12:23:46;;;;;;;5.63;4.73;;;29.30;74.80;;;;;;5180548;23;20415;-82
2021/09/07 12:25:49;;;;;;;5.13;4.43;;;29.40;72.70;;;;;;5180059;23;20447;-83
2021/09/07 12:27:53;;;;;;;6.00;4.87;;;29.50;72.80;;;;;;5172402;23;20427;-82
2021/09/07 12:30:22;;;;;;;5.33;4.70;;;29.30;72.40;;;;;;5181554;23;20526;-82
2021/09/07 12:32:24;;;;;;;7.00;5.00;;;29.50;73.00;;;;;;5156476;23;20420;-83
2021/09/07 12:34:27;;;;;;;5.30;4.80;;;29.70;72.70;;;;;;5195701;23;20433;-84
2021/09/07 12:36:43;;;;;;;5.43;4.93;;;29.90;71.10;;;;;;5187603;23;20448;-84
2021/09/07 12:38:49;;;;;;;5.20;4.70;;;30.10;72.30;;;;;;5188051;23;20451;-83
2021/09/07 12:40:54;;;;;;;5.30;4.60;;;30.10;72.90;;;;;;5184760;23;20412;-83
2021/09/07 12:42:57;;;;;;;8.23;4.93;;;30.50;70.50;;;;;;5183179;23;20412;-83
2021/09/07 12:45:00;;;;;;;8.00;4.60;;;30.40;69.50;;;;;;5182441;23;20511;-83
2021/09/07 12:47:03;;;;;;;5.43;4.93;;;30.30;70.20;;;;;;5183689;23;20434;-84
2021/09/07 12:49:06;;;;;;;5.43;4.85;;;30.60;71.20;;;;;;5183381;23;20466;-83
2021/09/07 12:51:11;;;;;;;4.65;4.20;;;31.80;69.80;;;;;;5183286;23;20438;-83
2021/09/07 12:53:16;;;;;;;5.45;4.40;;;32.30;67.60;;;;;;5191300;23;20435;-84
2021/09/07 12:55:37;;;;;;;7.22;4.95;;;32.70;67.80;;;;;;5181999;23;20443;-83
2021/09/07 12:57:40;;;;;;;5.30;4.80;;;33.10;66.00;;;;;;5186763;23;20811;-82